Time;durP1;ratioP1;P1;durP2;ratioP2;P2;SDS_P1;SDS_P2;PMS_P1;PMS_P2;Temp;Humidity;BMP_temperature;BMP_pressure;BME280_temperature;BME280_humidity;BME280_pressure;Samples;Min_cycle;Max_cycle;Signal;HPM_P1;HPM_P2
2023/09/18 00:02:11;;;;;;;4.45;4.15;;;;;;;;;;5134014;28;20030;-61
2023/09/18 00:04:37;;;;;;;4.97;3.95;;;;;;;;;;5134523;28;20039;-62
2023/09/18 00:07:02;;;;;;;3.47;3.28;;;;;;;;;;5134670;27;20043;-62
2023/09/18 00:09:27;;;;;;;6.10;4.30;;;;;;;;;;5134693;27;20035;-63
2023/09/18 00:11:53;;;;;;;4.25;3.83;;;;;;;;;;5134445;27;20027;-64
2023/09/18 00:14:18;;;;;;;3.55;3.35;;;;;;;;;;5133314;28;20094;-63
2023/09/18 00:16:45;;;;;;;3.67;3.38;;;;;;;;;;5135101;27;20011;-64
2023/09/18 00:19:10;;;;;;;3.65;3.45;;;;;;;;;;5138887;27;20073;-63
2023/09/18 00:21:36;;;;;;;3.65;3.33;;;;;;;;;;5138642;27;20019;-63
2023/09/18 00:24:01;;;;;;;3.47;3.28;;;;;;;;;;5138252;27;20027;-64
2023/09/18 00:26:27;;;;;;;3.80;3.60;;;;;;;;;;5137228;27;20446;-64
2023/09/18 00:28:52;;;;;;;4.50;3.47;;;;;;;;;;5138536;27;20035;-64
2023/09/18 00:31:18;;;;;;;3.67;3.40;;;;;;;;;;5136348;27;20134;-64
2023/09/18 00:33:44;;;;;;;4.03;3.72;;;;;;;;;;5119784;27;20031;-63
2023/09/18 00:36:10;;;;;;;3.63;3.33;;;;;;;;;;5136647;27;20388;-63
2023/09/18 00:38:35;;;;;;;3.53;3.30;;;;;;;;;;5138358;27;20027;-64
2023/09/18 00:41:01;;;;;;;3.60;3.30;;;;;;;;;;5137843;27;20122;-63
2023/09/18 00:43:26;;;;;;;3.65;3.35;;;;;;;;;;5138018;27;20034;-63
2023/09/18 00:45:52;;;;;;;3.58;3.22;;;;;;;;;;5138172;27;20069;-63
2023/09/18 00:48:18;;;;;;;3.88;3.58;;;;;;;;;;5138230;27;20031;-63
2023/09/18 00:50:44;;;;;;;3.33;3.13;;;;;;;;;;5136412;27;20494;-64
2023/09/18 00:53:10;;;;;;;3.53;3.15;;;;;;;;;;5136583;27;20035;-64
2023/09/18 00:55:37;;;;;;;4.38;3.22;;;;;;;;;;5137113;27;20030;-63
2023/09/18 00:58:02;;;;;;;4.13;3.83;;;;;;;;;;5137888;27;20020;-63
2023/09/18 01:00:28;;;;;;;3.65;3.35;;;;;;;;;;5137716;27;20114;-64
2023/09/18 01:02:53;;;;;;;3.40;3.17;;;;;;;;;;5136067;27;20050;-64
2023/09/18 01:05:20;;;;;;;3.28;3.00;;;;;;;;;;5137770;27;20027;-64
2023/09/18 01:07:46;;;;;;;3.83;2.85;;;;;;;;;;5137552;27;20027;-63
2023/09/18 01:10:16;;;;;;;3.50;3.15;;;;;;;;;;5136273;27;20038;-62
2023/09/18 01:12:46;;;;;;;3.63;3.35;;;;;;;;;;5119067;27;20102;-62
2023/09/18 01:15:15;;;;;;;3.30;3.05;;;;;;;;;;5137234;27;20452;-63
2023/09/18 01:17:40;;;;;;;3.53;3.33;;;;;;;;;;5135976;27;20461;-63
2023/09/18 01:20:08;;;;;;;3.35;3.15;;;;;;;;;;5136898;27;20102;-63
2023/09/18 01:22:34;;;;;;;3.58;3.28;;;;;;;;;;5136848;27;20030;-63
2023/09/18 01:24:59;;;;;;;3.85;3.42;;;;;;;;;;5135553;27;20019;-63
2023/09/18 01:27:24;;;;;;;3.38;3.08;;;;;;;;;;5137316;27;20020;-63
2023/09/18 01:29:50;;;;;;;4.13;3.28;;;;;;;;;;5137228;27;20350;-62
2023/09/18 01:32:17;;;;;;;2.92;2.72;;;;;;;;;;5137259;27;20027;-62
2023/09/18 01:34:46;;;;;;;3.63;3.40;;;;;;;;;;5136120;27;20061;-63
2023/09/18 01:37:12;;;;;;;3.75;3.55;;;;;;;;;;5136889;27;20460;-64
2023/09/18 01:39:38;;;;;;;3.35;3.15;;;;;;;;;;5136548;27;20059;-64
2023/09/18 01:42:09;;;;;;;3.20;3.00;;;;;;;;;;5137010;27;20031;-63
2023/09/18 01:44:35;;;;;;;3.58;3.28;;;;;;;;;;5137097;27;20435;-60
2023/09/18 01:47:04;;;;;;;3.50;3.30;;;;;;;;;;5135477;27;20055;-60
2023/09/18 01:49:34;;;;;;;3.33;3.13;;;;;;;;;;5136807;27;20038;-61
2023/09/18 01:52:00;;;;;;;3.25;2.95;;;;;;;;;;5135442;27;20027;-62
2023/09/18 01:54:25;;;;;;;3.45;3.25;;;;;;;;;;5135543;27;20029;-62
2023/09/18 01:56:51;;;;;;;3.47;3.28;;;;;;;;;;5136766;27;20019;-62
2023/09/18 01:59:17;;;;;;;3.33;3.03;;;;;;;;;;5135384;27;20037;-62
2023/09/18 02:01:43;;;;;;;3.40;3.15;;;;;;;;;;5134877;27;20087;-62
2023/09/18 02:04:08;;;;;;;3.33;3.03;;;;;;;;;;5135228;27;20034;-62
2023/09/18 02:06:34;;;;;;;3.38;3.08;;;;;;;;;;5134681;27;20039;-62
2023/09/18 02:09:00;;;;;;;3.60;3.30;;;;;;;;;;5136008;27;20117;-62
2023/09/18 02:11:25;;;;;;;3.22;2.97;;;;;;;;;;5135902;27;20027;-62
2023/09/18 02:13:51;;;;;;;3.25;3.10;;;;;;;;;;5135317;27;20334;-62
2023/09/18 02:16:16;;;;;;;3.58;3.38;;;;;;;;;;5135841;27;20030;-62
2023/09/18 02:18:43;;;;;;;3.40;3.20;;;;;;;;;;5134608;27;20107;-62
2023/09/18 02:21:09;;;;;;;4.15;3.85;;;;;;;;;;5134691;27;20026;-62
2023/09/18 02:23:34;;;;;;;5.15;3.30;;;;;;;;;;5136219;27;20023;-63
2023/09/18 02:26:00;;;;;;;3.67;3.40;;;;;;;;;;5136362;27;20045;-63
2023/09/18 02:28:25;;;;;;;3.45;3.15;;;;;;;;;;5136215;27;20135;-63
2023/09/18 02:30:51;;;;;;;3.80;3.47;;;;;;;;;;5135710;27;20046;-63
2023/09/18 02:33:17;;;;;;;3.65;3.35;;;;;;;;;;5134881;27;20046;-63
2023/09/18 02:35:45;;;;;;;4.30;4.00;;;;;;;;;;5117138;27;20058;-63
2023/09/18 02:38:10;;;;;;;3.60;3.30;;;;;;;;;;5135708;27;20027;-63
2023/09/18 02:40:36;;;;;;;5.60;3.88;;;;;;;;;;5134374;27;20102;-62
2023/09/18 02:43:02;;;;;;;6.30;3.72;;;;;;;;;;5132038;27;20424;-63
2023/09/18 02:45:27;;;;;;;3.85;3.55;;;;;;;;;;5115374;28;20438;-63
2023/09/18 02:47:53;;;;;;;5.00;3.72;;;;;;;;;;5113764;28;20024;-63
2023/09/18 02:50:19;;;;;;;4.00;3.53;;;;;;;;;;5113549;28;20083;-63
2023/09/18 02:52:45;;;;;;;4.28;3.90;;;;;;;;;;5113543;28;20027;-60
2023/09/18 02:55:10;;;;;;;3.63;3.38;;;;;;;;;;5096976;28;20020;-63
2023/09/18 02:57:36;;;;;;;3.67;3.47;;;;;;;;;;5096580;28;20027;-64
2023/09/18 03:00:03;;;;;;;3.70;3.50;;;;;;;;;;5113536;28;20406;-64
2023/09/18 03:02:28;;;;;;;4.00;3.60;;;;;;;;;;5113708;28;20452;-62
2023/09/18 03:04:54;;;;;;;7.88;4.30;;;;;;;;;;5113507;28;20111;-63
2023/09/18 03:07:20;;;;;;;3.75;3.40;;;;;;;;;;5114930;28;20181;-63
2023/09/18 03:09:45;;;;;;;3.70;3.40;;;;;;;;;;5114760;28;20023;-62
2023/09/18 03:12:11;;;;;;;3.67;3.38;;;;;;;;;;5114565;28;20034;-62
2023/09/18 03:14:36;;;;;;;3.10;2.90;;;;;;;;;;5114523;28;20038;-63
2023/09/18 03:17:01;;;;;;;4.05;3.63;;;;;;;;;;5113576;28;20027;-63
2023/09/18 03:19:27;;;;;;;4.00;3.70;;;;;;;;;;5122933;27;20046;-59
2023/09/18 03:21:54;;;;;;;3.35;3.15;;;;;;;;;;5134506;27;20059;-60
2023/09/18 03:24:19;;;;;;;3.72;3.30;;;;;;;;;;5134991;27;20038;-59
2023/09/18 03:26:45;;;;;;;3.88;3.55;;;;;;;;;;5135004;27;20026;-59
2023/09/18 03:29:10;;;;;;;3.67;3.15;;;;;;;;;;5133381;27;20023;-59
2023/09/18 03:31:36;;;;;;;4.28;3.72;;;;;;;;;;5133543;28;20477;-59
2023/09/18 03:34:02;;;;;;;3.47;3.28;;;;;;;;;;5133180;28;20027;-59
2023/09/18 03:36:27;;;;;;;3.88;3.67;;;;;;;;;;5133561;28;20053;-58
2023/09/18 03:38:53;;;;;;;3.83;3.63;;;;;;;;;;5099248;28;20058;-58
2023/09/18 03:41:18;;;;;;;4.20;3.90;;;;;;;;;;5113089;28;20036;-62
2023/09/18 03:43:44;;;;;;;7.05;4.22;;;;;;;;;;5112690;28;20054;-62
2023/09/18 03:46:09;;;;;;;4.13;3.75;;;;;;;;;;5133966;27;20452;-63
2023/09/18 03:48:42;;;;;;;4.13;3.80;;;;;;;;;;5133497;28;20037;-63
2023/09/18 03:51:15;;;;;;;4.72;3.83;;;;;;;;;;5134320;27;20387;-63
2023/09/18 03:53:41;;;;;;;4.22;3.95;;;;;;;;;;5138161;27;20027;-63
2023/09/18 03:56:06;;;;;;;9.00;5.47;;;;;;;;;;5138289;27;20080;-63
2023/09/18 03:58:32;;;;;;;3.92;3.72;;;;;;;;;;5139113;27;20027;-63
2023/09/18 04:00:57;;;;;;;3.80;3.47;;;;;;;;;;5138540;27;20469;-63
2023/09/18 04:03:23;;;;;;;4.10;3.88;;;;;;;;;;5137305;27;20015;-63
2023/09/18 04:05:48;;;;;;;4.57;4.18;;;;;;;;;;5138544;27;20023;-62
2023/09/18 04:08:14;;;;;;;4.22;3.92;;;;;;;;;;5137151;27;20034;-62
2023/09/18 04:10:39;;;;;;;4.13;3.80;;;;;;;;;;5138300;27;20027;-62
2023/09/18 04:13:05;;;;;;;4.43;3.95;;;;;;;;;;5136494;27;20027;-63
2023/09/18 04:15:30;;;;;;;3.80;3.58;;;;;;;;;;5138590;27;20027;-63
2023/09/18 04:17:56;;;;;;;4.38;4.05;;;;;;;;;;5136982;27;20069;-64
2023/09/18 04:20:22;;;;;;;4.70;4.30;;;;;;;;;;5137133;27;20034;-64
2023/09/18 04:23:08;;;;;;;4.50;3.92;;;;;;;;;;5136801;27;20027;-64
2023/09/18 04:25:33;;;;;;;4.53;4.13;;;;;;;;;;5136412;27;20038;-64
2023/09/18 04:27:59;;;;;;;4.45;4.03;;;;;;;;;;5137438;27;20031;-63
2023/09/18 04:30:24;;;;;;;4.57;4.25;;;;;;;;;;5137836;27;20134;-62
2023/09/18 04:32:51;;;;;;;4.20;3.90;;;;;;;;;;5136709;27;20022;-62
2023/09/18 04:35:17;;;;;;;3.97;3.67;;;;;;;;;;5136738;27;20027;-62
2023/09/18 04:37:42;;;;;;;4.50;4.25;;;;;;;;;;5136411;27;20357;-62
2023/09/18 04:40:09;;;;;;;4.95;4.35;;;;;;;;;;5136552;27;20015;-62
2023/09/18 04:42:36;;;;;;;4.43;4.10;;;;;;;;;;5136180;27;20027;-62
2023/09/18 04:45:01;;;;;;;4.22;4.00;;;;;;;;;;5136090;27;20372;-62
2023/09/18 04:47:27;;;;;;;4.38;4.07;;;;;;;;;;5135660;27;20019;-62
2023/09/18 04:49:52;;;;;;;4.47;4.05;;;;;;;;;;5137892;27;20023;-62
2023/09/18 04:52:18;;;;;;;6.00;4.68;;;;;;;;;;5136430;27;20031;-62
2023/09/18 04:54:43;;;;;;;5.82;4.25;;;;;;;;;;5137647;27;20019;-62
2023/09/18 04:57:09;;;;;;;5.45;5.03;;;;;;;;;;5136167;27;20614;-62
2023/09/18 04:59:35;;;;;;;5.30;4.22;;;;;;;;;;5118171;27;20020;-62
2023/09/18 05:02:00;;;;;;;4.40;4.10;;;;;;;;;;5135595;27;20153;-61
2023/09/18 05:04:26;;;;;;;5.00;4.60;;;;;;;;;;5134440;27;20380;-57
2023/09/18 05:06:51;;;;;;;4.50;4.20;;;;;;;;;;5135116;27;20088;-56
2023/09/18 05:09:17;;;;;;;4.80;4.40;;;;;;;;;;5136217;27;20035;-59
2023/09/18 05:11:42;;;;;;;6.97;4.60;;;;;;;;;;5136607;27;20039;-58
2023/09/18 05:14:07;;;;;;;4.97;4.68;;;;;;;;;;5137180;27;20046;-58
2023/09/18 05:16:33;;;;;;;5.30;4.80;;;;;;;;;;5136589;27;20053;-58
2023/09/18 05:18:59;;;;;;;6.93;5.80;;;;;;;;;;5135975;27;20035;-58
2023/09/18 05:21:26;;;;;;;5.63;5.20;;;;;;;;;;5136874;27;20106;-63
2023/09/18 05:23:53;;;;;;;8.35;5.72;;;;;;;;;;5118658;27;20062;-63
2023/09/18 05:26:19;;;;;;;6.70;5.35;;;;;;;;;;5136619;27;20019;-63
2023/09/18 05:28:44;;;;;;;7.72;6.03;;;;;;;;;;5136848;27;20041;-63
2023/09/18 05:31:09;;;;;;;6.22;5.63;;;;;;;;;;5136160;27;20035;-63
2023/09/18 05:33:35;;;;;;;5.47;5.07;;;;;;;;;;5136937;27;20023;-63
2023/09/18 05:36:00;;;;;;;6.75;6.15;;;;;;;;;;5136218;27;20354;-63
2023/09/18 05:38:26;;;;;;;8.40;6.20;;;;;;;;;;5135872;27;20087;-63
2023/09/18 05:40:51;;;;;;;8.40;6.03;;;;;;;;;;5134974;27;20031;-63
2023/09/18 05:43:18;;;;;;;6.93;6.10;;;;;;;;;;5135831;27;20038;-63
2023/09/18 05:45:43;;;;;;;8.30;6.80;;;;;;;;;;5134311;27;20038;-63
2023/09/18 05:48:09;;;;;;;8.95;7.10;;;;;;;;;;5134328;27;20314;-63
2023/09/18 05:50:38;;;;;;;7.80;7.05;;;;;;;;;;5133323;27;20110;-63
2023/09/18 05:53:03;;;;;;;6.97;6.38;;;;;;;;;;5134937;27;20107;-63
2023/09/18 05:55:38;;;;;;;8.15;7.32;;;;;;;;;;5134947;27;20059;-63
2023/09/18 05:58:04;;;;;;;13.10;7.55;;;;;;;;;;5134387;27;20111;-63
2023/09/18 06:00:33;;;;;;;8.40;7.43;;;;;;;;;;5134141;27;20034;-63
2023/09/18 06:02:59;;;;;;;9.38;7.35;;;;;;;;;;5133900;27;20614;-63
2023/09/18 06:05:25;;;;;;;7.88;7.18;;;;;;;;;;5134456;27;20114;-63
2023/09/18 06:07:51;;;;;;;8.73;6.70;;;;;;;;;;5134590;27;20145;-63
2023/09/18 06:10:17;;;;;;;8.02;7.32;;;;;;;;;;5135055;27;20102;-63
2023/09/18 06:12:43;;;;;;;8.75;7.80;;;;;;;;;;5135121;27;20030;-63
2023/09/18 06:15:12;;;;;;;8.52;7.75;;;;;;;;;;5134704;27;20109;-63
2023/09/18 06:17:41;;;;;;;8.60;7.80;;;;;;;;;;5135592;27;20117;-63
2023/09/18 06:20:09;;;;;;;8.05;7.35;;;;;;;;;;5135534;27;20027;-58
2023/09/18 06:22:54;;;;;;;8.75;8.05;;;;;;;;;;5116331;22;20046;-58
2023/09/18 06:25:21;;;;;;;8.15;7.47;;;;;;;;;;5073477;28;20064;-61
2023/09/18 06:27:48;;;;;;;8.63;7.75;;;;;;;;;;5059257;28;20033;-58
2023/09/18 06:30:14;;;;;;;9.15;8.35;;;;;;;;;;4992300;28;20121;-61
2023/09/18 06:32:41;;;;;;;7.70;7.05;;;;;;;;;;5058490;28;20050;-58
2023/09/18 06:35:06;;;;;;;9.88;7.88;;;;;;;;;;4992150;28;20100;-58
2023/09/18 06:37:32;;;;;;;7.90;7.28;;;;;;;;;;4992272;28;20057;-58
2023/09/18 06:39:57;;;;;;;9.55;8.02;;;;;;;;;;4991866;28;20045;-58
2023/09/18 06:42:23;;;;;;;8.73;7.82;;;;;;;;;;4991932;28;20471;-58
2023/09/18 06:44:56;;;;;;;8.82;8.02;;;;;;;;;;5058907;28;20077;-58
2023/09/18 06:47:21;;;;;;;8.73;8.00;;;;;;;;;;4991882;28;20472;-58
2023/09/18 06:49:47;;;;;;;9.00;8.10;;;;;;;;;;4991746;28;20030;-58
2023/09/18 06:52:12;;;;;;;8.75;7.88;;;;;;;;;;5058930;28;20041;-58
2023/09/18 06:54:38;;;;;;;8.13;7.05;;;;;;;;;;4991791;28;20029;-58
2023/09/18 06:57:03;;;;;;;7.47;6.88;;;;;;;;;;4991936;28;20033;-57
2023/09/18 06:59:29;;;;;;;9.85;7.75;;;;;;;;;;4991698;28;20023;-58
2023/09/18 07:01:55;;;;;;;8.57;7.78;;;;;;;;;;4991519;28;20114;-58
2023/09/18 07:04:22;;;;;;;7.38;6.78;;;;;;;;;;5058558;28;20030;-58
2023/09/18 07:06:47;;;;;;;9.43;8.38;;;;;;;;;;4991597;28;20034;-58
2023/09/18 07:09:13;;;;;;;7.10;6.40;;;;;;;;;;5058565;28;20027;-58
2023/09/18 07:11:39;;;;;;;7.38;6.32;;;;;;;;;;4991464;28;20068;-58
2023/09/18 07:14:06;;;;;;;9.43;7.63;;;;;;;;;;4991406;28;20018;-58
2023/09/18 07:16:31;;;;;;;9.18;8.27;;;;;;;;;;4991443;28;20039;-58
2023/09/18 07:18:57;;;;;;;8.38;7.55;;;;;;;;;;5058561;28;20037;-58
2023/09/18 07:21:22;;;;;;;8.75;7.82;;;;;;;;;;4991193;28;20475;-58
2023/09/18 07:23:47;;;;;;;8.27;7.53;;;;;;;;;;5029220;28;20105;-58
2023/09/18 07:26:13;;;;;;;9.77;8.02;;;;;;;;;;5093288;28;20047;-58
2023/09/18 07:28:38;;;;;;;6.07;5.55;;;;;;;;;;5075528;28;20039;-58
2023/09/18 07:31:08;;;;;;;7.25;6.57;;;;;;;;;;5093406;28;20027;-58
2023/09/18 07:33:34;;;;;;;7.03;6.43;;;;;;;;;;5093427;28;20035;-58
2023/09/18 07:35:59;;;;;;;6.63;6.03;;;;;;;;;;5093442;28;20020;-58
2023/09/18 07:38:25;;;;;;;7.07;5.70;;;;;;;;;;5093590;28;20012;-58
2023/09/18 07:40:50;;;;;;;6.72;6.13;;;;;;;;;;5093402;28;20381;-58
2023/09/18 07:43:15;;;;;;;5.82;5.28;;;;;;;;;;5093301;28;20381;-58
2023/09/18 07:45:41;;;;;;;6.88;6.28;;;;;;;;;;5093198;28;20028;-58
2023/09/18 07:48:07;;;;;;;5.97;5.45;;;;;;;;;;5093321;28;20031;-58
2023/09/18 07:50:34;;;;;;;6.00;5.53;;;;;;;;;;5093132;28;20024;-58
2023/09/18 07:52:59;;;;;;;6.68;5.97;;;;;;;;;;5093284;28;20070;-58
2023/09/18 07:55:26;;;;;;;6.90;6.18;;;;;;;;;;5093203;28;20035;-58
2023/09/18 07:57:51;;;;;;;7.07;6.43;;;;;;;;;;5093251;28;20028;-57
2023/09/18 08:00:17;;;;;;;6.88;6.28;;;;;;;;;;5093180;28;20465;-58
2023/09/18 08:02:42;;;;;;;6.88;6.22;;;;;;;;;;5075037;28;20021;-58
2023/09/18 08:05:10;;;;;;;6.72;6.10;;;;;;;;;;5093194;28;20028;-58
2023/09/18 08:07:36;;;;;;;7.72;6.15;;;;;;;;;;5093109;28;20024;-58
2023/09/18 08:10:06;;;;;;;6.07;5.53;;;;;;;;;;5093134;28;20031;-58
2023/09/18 08:12:32;;;;;;;5.38;4.95;;;;;;;;;;5092918;28;20486;-58
2023/09/18 08:14:58;;;;;;;6.97;6.35;;;;;;;;;;5093355;28;20103;-58
2023/09/18 08:17:24;;;;;;;7.00;6.38;;;;;;;;;;5093003;28;20030;-58
2023/09/18 08:19:53;;;;;;;7.82;7.20;;;;;;;;;;5092998;28;20098;-58
2023/09/18 08:22:19;;;;;;;7.63;6.85;;;;;;;;;;5074763;28;20063;-58
2023/09/18 08:24:45;;;;;;;5.10;4.60;;;;;;;;;;5092773;28;20497;-58
2023/09/18 08:27:11;;;;;;;5.85;5.43;;;;;;;;;;5092963;28;20362;-58
2023/09/18 08:29:37;;;;;;;5.97;5.47;;;;;;;;;;5092915;28;20036;-57
2023/09/18 08:32:02;;;;;;;7.90;7.22;;;;;;;;;;5092898;28;20028;-58
2023/09/18 08:34:28;;;;;;;7.47;6.82;;;;;;;;;;5092882;28;20040;-58
2023/09/18 08:36:53;;;;;;;7.53;6.85;;;;;;;;;;5092791;28;20024;-58
2023/09/18 08:39:20;;;;;;;8.18;6.35;;;;;;;;;;5095392;28;20032;-58
2023/09/18 08:41:48;;;;;;;8.05;7.32;;;;;;;;;;5078247;28;20039;-58
2023/09/18 08:44:14;;;;;;;5.70;5.20;;;;;;;;;;5096317;28;20469;-58
2023/09/18 08:46:39;;;;;;;6.13;5.65;;;;;;;;;;5096461;28;20020;-58
2023/09/18 08:49:07;;;;;;;5.88;5.43;;;;;;;;;;5096391;28;20032;-58
2023/09/18 08:51:33;;;;;;;7.80;7.00;;;;;;;;;;5077987;28;20063;-58
2023/09/18 08:53:58;;;;;;;7.55;6.07;;;;;;;;;;5096326;28;20027;-58
2023/09/18 08:56:24;;;;;;;7.93;7.28;;;;;;;;;;5096246;28;20099;-58
2023/09/18 08:58:49;;;;;;;6.90;6.30;;;;;;;;;;5096117;28;20027;-58
2023/09/18 09:01:14;;;;;;;6.70;6.20;;;;;;;;;;5096055;28;20111;-58
2023/09/18 09:03:41;;;;;;;7.68;5.88;;;;;;;;;;5096077;28;20040;-58
2023/09/18 09:06:07;;;;;;;6.63;6.03;;;;;;;;;;5077837;28;20024;-58
2023/09/18 09:08:33;;;;;;;4.85;4.50;;;;;;;;;;5095897;28;20039;-58
2023/09/18 09:10:58;;;;;;;5.32;4.85;;;;;;;;;;5077713;28;20027;-58
2023/09/18 09:13:27;;;;;;;6.03;5.53;;;;;;;;;;5077766;28;20040;-58
2023/09/18 09:15:56;;;;;;;7.93;7.32;;;;;;;;;;5077779;28;20157;-58
2023/09/18 09:18:22;;;;;;;7.57;6.88;;;;;;;;;;5095745;28;20047;-57
2023/09/18 09:21:01;;;;;;;6.72;6.05;;;;;;;;;;5095754;28;20051;-58
2023/09/18 09:23:27;;;;;;;6.43;5.93;;;;;;;;;;5095595;28;20040;-58
2023/09/18 09:25:53;;;;;;;9.73;8.80;;;;;;;;;;5095564;28;20501;-57
2023/09/18 09:28:29;;;;;;;6.72;6.15;;;;;;;;;;5095593;28;20077;-58
2023/09/18 09:31:00;;;;;;;8.30;7.63;;;;;;;;;;5095376;28;20377;-58
2023/09/18 09:33:25;;;;;;;8.13;7.43;;;;;;;;;;5095475;28;20040;-58
2023/09/18 09:35:50;;;;;;;6.90;6.32;;;;;;;;;;5095400;28;20032;-57
2023/09/18 09:38:16;;;;;;;8.32;7.45;;;;;;;;;;5095366;28;20115;-58
2023/09/18 09:40:42;;;;;;;6.68;5.78;;;;;;;;;;5095387;28;20110;-57
2023/09/18 09:43:10;;;;;;;6.00;5.50;;;;;;;;;;5077120;28;20441;-58
2023/09/18 09:45:35;;;;;;;6.70;6.00;;;;;;;;;;5095246;28;20389;-58
2023/09/18 09:48:02;;;;;;;5.72;5.22;;;;;;;;;;5095358;28;20036;-58
2023/09/18 09:50:28;;;;;;;6.13;4.53;;;;;;;;;;5095116;28;20429;-58
2023/09/18 09:52:54;;;;;;;7.93;7.13;;;;;;;;;;5095022;28;20107;-58
2023/09/18 09:55:33;;;;;;;9.63;8.63;;;;;;;;;;5095152;28;20016;-57
2023/09/18 09:58:01;;;;;;;6.05;5.47;;;;;;;;;;5095013;28;20036;-57
2023/09/18 10:00:32;;;;;;;5.75;5.32;;;;;;;;;;5094951;28;20060;-58
2023/09/18 10:03:06;;;;;;;7.43;6.82;;;;;;;;;;5094871;28;20032;-58
2023/09/18 10:05:34;;;;;;;5.85;5.28;;;;;;;;;;5094815;28;20024;-58
2023/09/18 10:08:02;;;;;;;6.88;6.28;;;;;;;;;;5076636;28;20019;-58
2023/09/18 10:10:31;;;;;;;7.38;6.70;;;;;;;;;;5076691;28;20032;-58
2023/09/18 10:12:57;;;;;;;6.78;6.20;;;;;;;;;;5094672;28;20028;-58
2023/09/18 10:15:24;;;;;;;5.40;4.97;;;;;;;;;;5076554;28;20028;-58
2023/09/18 10:17:52;;;;;;;7.22;6.57;;;;;;;;;;5094653;28;20066;-57
2023/09/18 10:20:20;;;;;;;7.50;6.80;;;;;;;;;;5094656;28;20077;-58
2023/09/18 10:22:49;;;;;;;7.65;7.00;;;;;;;;;;5059624;28;20558;-58
2023/09/18 10:25:20;;;;;;;5.90;5.30;;;;;;;;;;5094251;28;20495;-57
2023/09/18 10:27:49;;;;;;;6.05;5.53;;;;;;;;;;5094445;28;20020;-58
2023/09/18 10:30:18;;;;;;;7.82;7.13;;;;;;;;;;5094353;28;20024;-58
2023/09/18 10:32:45;;;;;;;7.45;6.78;;;;;;;;;;5076211;28;20101;-58
2023/09/18 10:35:12;;;;;;;8.65;6.60;;;;;;;;;;5094312;28;20113;-58
2023/09/18 10:37:38;;;;;;;6.60;6.05;;;;;;;;;;5076179;28;20028;-58
2023/09/18 10:40:07;;;;;;;7.68;6.95;;;;;;;;;;5094226;28;20039;-58
2023/09/18 10:42:34;;;;;;;7.00;6.38;;;;;;;;;;5094116;28;20114;-58
2023/09/18 10:45:00;;;;;;;5.65;5.15;;;;;;;;;;5094213;28;20036;-58
2023/09/18 10:47:25;;;;;;;6.82;6.22;;;;;;;;;;5094120;28;20039;-58
2023/09/18 10:49:51;;;;;;;8.15;7.38;;;;;;;;;;5075937;28;20038;-58
2023/09/18 10:52:17;;;;;;;10.52;9.50;;;;;;;;;;5075722;28;20057;-58
2023/09/18 10:54:44;;;;;;;8.43;6.97;;;;;;;;;;5075757;28;20024;-58
2023/09/18 10:57:09;;;;;;;8.55;7.82;;;;;;;;;;5093913;28;20028;-58
2023/09/18 10:59:43;;;;;;;7.50;6.85;;;;;;;;;;5094131;28;20024;-58
2023/09/18 11:02:08;;;;;;;10.00;9.02;;;;;;;;;;5093427;28;20028;-58
2023/09/18 11:04:33;;;;;;;6.28;5.72;;;;;;;;;;5075744;28;20450;-58
2023/09/18 11:06:59;;;;;;;7.63;6.85;;;;;;;;;;5093792;28;20040;-58
2023/09/18 11:09:24;;;;;;;7.68;6.70;;;;;;;;;;5093750;28;20107;-58
2023/09/18 11:11:56;;;;;;;7.10;6.38;;;;;;;;;;5093582;28;20020;-58
2023/09/18 11:14:22;;;;;;;6.22;5.63;;;;;;;;;;5093702;28;20082;-58
2023/09/18 11:16:49;;;;;;;5.30;4.38;;;;;;;;;;5093680;28;20416;-58
2023/09/18 11:19:18;;;;;;;7.10;6.43;;;;;;;;;;5093819;28;20369;-58
2023/09/18 11:21:45;;;;;;;7.65;6.88;;;;;;;;;;5075467;28;20032;-58
2023/09/18 11:24:21;;;;;;;7.30;6.60;;;;;;;;;;5058528;28;20051;-58
2023/09/18 11:26:48;;;;;;;8.25;7.03;;;;;;;;;;5075516;28;20040;-58
2023/09/18 11:29:15;;;;;;;6.07;4.38;;;;;;;;;;5093439;28;20111;-58
2023/09/18 11:31:43;;;;;;;6.55;5.88;;;;;;;;;;5093377;28;20032;-58
2023/09/18 11:34:19;;;;;;;8.10;7.15;;;;;;;;;;5093416;28;20095;-58
2023/09/18 11:36:44;;;;;;;7.95;7.15;;;;;;;;;;5093457;28;20032;-58
2023/09/18 11:39:11;;;;;;;9.38;8.35;;;;;;;;;;5093330;28;20091;-58
2023/09/18 11:41:38;;;;;;;8.25;7.13;;;;;;;;;;5058519;28;20123;-58
2023/09/18 11:44:07;;;;;;;6.57;5.93;;;;;;;;;;5093337;28;20409;-57
2023/09/18 11:46:32;;;;;;;6.07;5.57;;;;;;;;;;5093277;28;20032;-58
2023/09/18 11:48:59;;;;;;;6.50;6.00;;;;;;;;;;5093303;28;20055;-58
2023/09/18 11:51:25;;;;;;;7.25;6.63;;;;;;;;;;5075250;28;20073;-58
2023/09/18 11:53:55;;;;;;;7.90;6.85;;;;;;;;;;5075160;28;20483;-58
2023/09/18 11:56:20;;;;;;;8.10;6.57;;;;;;;;;;5093236;28;20032;-58
2023/09/18 11:58:50;;;;;;;7.25;6.18;;;;;;;;;;5093231;28;20036;-58
2023/09/18 12:01:15;;;;;;;7.78;7.05;;;;;;;;;;5093096;28;20030;-58
2023/09/18 12:03:41;;;;;;;5.05;4.60;;;;;;;;;;5093214;28;20131;-57
2023/09/18 12:06:09;;;;;;;7.72;7.03;;;;;;;;;;5058371;28;20469;-58
2023/09/18 12:08:35;;;;;;;7.90;7.20;;;;;;;;;;5093062;28;20028;-58
2023/09/18 12:11:05;;;;;;;7.07;6.40;;;;;;;;;;5093032;28;20487;-58
2023/09/18 12:13:31;;;;;;;6.47;5.88;;;;;;;;;;5094789;28;20020;-58
2023/09/18 12:16:05;;;;;;;8.52;7.63;;;;;;;;;;5097340;28;20488;-58
2023/09/18 12:18:32;;;;;;;8.85;7.95;;;;;;;;;;5097365;28;20064;-58
2023/09/18 12:20:58;;;;;;;8.05;7.32;;;;;;;;;;5097196;28;20480;-58
2023/09/18 12:23:24;;;;;;;8.50;7.80;;;;;;;;;;5078690;28;20465;-58
2023/09/18 12:25:55;;;;;;;8.07;7.32;;;;;;;;;;5096411;28;20039;-58
2023/09/18 12:28:21;;;;;;;10.57;9.40;;;;;;;;;;5096688;28;20028;-58
2023/09/18 12:30:46;;;;;;;7.97;7.28;;;;;;;;;;5096721;28;20496;-58
2023/09/18 12:33:12;;;;;;;7.10;5.05;;;;;;;;;;5079184;28;20028;-58
2023/09/18 12:35:40;;;;;;;8.73;6.65;;;;;;;;;;5097338;28;20473;-58
2023/09/18 12:38:13;;;;;;;6.20;5.70;;;;;;;;;;5097451;28;20031;-58
2023/09/18 12:40:38;;;;;;;6.07;5.57;;;;;;;;;;5096916;28;20058;-58
2023/09/18 12:43:06;;;;;;;5.85;5.35;;;;;;;;;;5097033;28;20032;-58
2023/09/18 12:45:31;;;;;;;4.95;4.57;;;;;;;;;;5096274;28;20459;-58
2023/09/18 12:47:57;;;;;;;6.13;5.50;;;;;;;;;;5096481;28;20103;-58
2023/09/18 12:50:23;;;;;;;5.50;5.00;;;;;;;;;;5097203;28;20028;-58
2023/09/18 12:52:48;;;;;;;6.20;5.70;;;;;;;;;;5096401;28;20073;-58
2023/09/18 12:55:20;;;;;;;5.88;5.43;;;;;;;;;;5096895;28;20034;-58
2023/09/18 12:57:46;;;;;;;6.13;5.63;;;;;;;;;;5096531;28;20060;-58
2023/09/18 13:00:12;;;;;;;6.07;5.65;;;;;;;;;;5095394;28;20030;-58
2023/09/18 13:02:38;;;;;;;6.43;5.93;;;;;;;;;;5095613;28;20036;-58
2023/09/18 13:05:04;;;;;;;6.55;6.03;;;;;;;;;;5094625;28;20043;-58
2023/09/18 13:07:32;;;;;;;7.50;6.80;;;;;;;;;;5095112;28;20449;-63
2023/09/18 13:10:03;;;;;;;7.75;7.05;;;;;;;;;;5084882;28;20032;-63
2023/09/18 13:12:40;;;;;;;7.10;6.60;;;;;;;;;;5085035;28;20031;-61
2023/09/18 13:15:13;;;;;;;7.32;6.60;;;;;;;;;;5077886;28;20024;-58
2023/09/18 13:17:47;;;;;;;6.65;6.10;;;;;;;;;;5086170;28;20554;-58
2023/09/18 13:20:20;;;;;;;6.57;6.07;;;;;;;;;;5094938;28;20020;-58
2023/09/18 13:22:50;;;;;;;6.72;6.13;;;;;;;;;;5095434;28;20202;-58
2023/09/18 13:25:22;;;;;;;5.80;5.30;;;;;;;;;;5094914;28;20201;-58
2023/09/18 13:27:49;;;;;;;4.68;4.28;;;;;;;;;;5095687;28;20043;-58
2023/09/18 13:30:16;;;;;;;6.30;5.75;;;;;;;;;;5095665;28;20529;-58
2023/09/18 13:32:42;;;;;;;6.40;5.90;;;;;;;;;;5095359;28;20050;-58
2023/09/18 13:35:08;;;;;;;6.05;5.57;;;;;;;;;;5095578;28;20070;-58
2023/09/18 13:37:34;;;;;;;6.63;5.97;;;;;;;;;;5077433;28;20550;-58
2023/09/18 13:40:06;;;;;;;5.90;5.50;;;;;;;;;;5077227;28;20028;-58
2023/09/18 13:42:31;;;;;;;6.63;6.13;;;;;;;;;;5095442;28;20036;-58
2023/09/18 13:44:57;;;;;;;8.32;6.43;;;;;;;;;;5077154;28;20036;-58
2023/09/18 13:47:23;;;;;;;6.22;5.68;;;;;;;;;;5095675;28;20107;-58
2023/09/18 13:49:51;;;;;;;6.25;5.65;;;;;;;;;;5095625;28;20142;-58
2023/09/18 13:52:16;;;;;;;6.72;6.20;;;;;;;;;;5077248;28;20028;-58
2023/09/18 13:54:42;;;;;;;6.88;6.32;;;;;;;;;;5094769;28;20472;-58
2023/09/18 13:57:07;;;;;;;6.15;5.65;;;;;;;;;;5095119;28;20024;-58
2023/09/18 13:59:33;;;;;;;6.50;6.00;;;;;;;;;;5094850;28;20028;-58
2023/09/18 14:01:58;;;;;;;5.32;4.85;;;;;;;;;;5094982;28;20031;-58
2023/09/18 14:04:24;;;;;;;6.32;5.78;;;;;;;;;;5094884;28;20130;-58
2023/09/18 14:06:49;;;;;;;6.50;6.00;;;;;;;;;;5076590;28;20026;-58
2023/09/18 14:09:16;;;;;;;6.75;6.25;;;;;;;;;;5094906;28;20419;-58
2023/09/18 14:11:42;;;;;;;6.75;6.22;;;;;;;;;;5094853;28;20035;-58
2023/09/18 14:14:07;;;;;;;6.15;5.55;;;;;;;;;;5094776;28;20414;-58
2023/09/18 14:16:33;;;;;;;6.45;5.90;;;;;;;;;;5076605;28;20022;-58
2023/09/18 14:18:59;;;;;;;6.65;6.15;;;;;;;;;;5094785;28;20401;-58
2023/09/18 14:21:24;;;;;;;6.80;6.18;;;;;;;;;;5059844;28;20020;-58
2023/09/18 14:23:50;;;;;;;6.00;5.55;;;;;;;;;;5051682;28;20046;-58
2023/09/18 14:26:15;;;;;;;7.00;6.45;;;;;;;;;;4971809;28;20027;-58
2023/09/18 14:28:40;;;;;;;6.70;6.20;;;;;;;;;;5039331;28;20091;-58
2023/09/18 14:31:06;;;;;;;6.93;6.32;;;;;;;;;;4972585;28;20045;-58
2023/09/18 14:33:31;;;;;;;6.95;6.35;;;;;;;;;;4972222;28;20026;-58
2023/09/18 14:35:57;;;;;;;7.13;6.53;;;;;;;;;;4971721;28;20460;-58
2023/09/18 14:38:22;;;;;;;6.40;5.85;;;;;;;;;;4972208;28;20058;-58
2023/09/18 14:40:48;;;;;;;5.28;4.88;;;;;;;;;;4971973;28;20066;-58